sensor_id;sensor_type;location;lat;lon;timestamp;P1;durP1;ratioP1;P2;durP2;ratioP2
17618;SDS011;8928;51.678;6.074;2023-02-15T00:01:20;65.33;;;26.40;;
17618;SDS011;8928;51.678;6.074;2023-02-15T00:04:08;73.03;;;27.00;;
17618;SDS011;8928;51.678;6.074;2023-02-15T00:06:57;70.80;;;27.37;;
17618;SDS011;8928;51.678;6.074;2023-02-15T00:09:44;71.80;;;27.13;;
17618;SDS011;8928;51.678;6.074;2023-02-15T00:12:31;70.37;;;27.23;;
17618;SDS011;8928;51.678;6.074;2023-02-15T00:15:18;68.30;;;27.00;;
17618;SDS011;8928;51.678;6.074;2023-02-15T00:18:05;69.37;;;27.00;;
17618;SDS011;8928;51.678;6.074;2023-02-15T00:20:52;64.13;;;25.97;;
17618;SDS011;8928;51.678;6.074;2023-02-15T00:23:41;61.60;;;25.70;;
17618;SDS011;8928;51.678;6.074;2023-02-15T00:26:28;64.63;;;24.80;;
17618;SDS011;8928;51.678;6.074;2023-02-15T00:29:15;64.03;;;24.77;;
17618;SDS011;8928;51.678;6.074;2023-02-15T00:32:03;60.63;;;24.87;;
17618;SDS011;8928;51.678;6.074;2023-02-15T00:34:51;58.73;;;24.47;;
17618;SDS011;8928;51.678;6.074;2023-02-15T00:37:38;61.27;;;25.07;;
17618;SDS011;8928;51.678;6.074;2023-02-15T00:40:26;59.73;;;24.30;;
17618;SDS011;8928;51.678;6.074;2023-02-15T00:43:13;60.97;;;23.80;;
17618;SDS011;8928;51.678;6.074;2023-02-15T00:46:01;58.93;;;22.53;;
17618;SDS011;8928;51.678;6.074;2023-02-15T00:48:48;54.43;;;21.93;;
17618;SDS011;8928;51.678;6.074;2023-02-15T00:51:36;56.27;;;22.87;;
17618;SDS011;8928;51.678;6.074;2023-02-15T00:54:23;58.27;;;23.20;;
17618;SDS011;8928;51.678;6.074;2023-02-15T00:57:11;58.63;;;22.70;;
17618;SDS011;8928;51.678;6.074;2023-02-15T00:59:58;52.40;;;21.80;;
17618;SDS011;8928;51.678;6.074;2023-02-15T01:02:45;57.50;;;23.47;;
17618;SDS011;8928;51.678;6.074;2023-02-15T01:05:32;61.30;;;23.30;;
17618;SDS011;8928;51.678;6.074;2023-02-15T01:08:19;58.43;;;22.77;;
17618;SDS011;8928;51.678;6.074;2023-02-15T01:11:07;53.50;;;22.53;;
17618;SDS011;8928;51.678;6.074;2023-02-15T01:13:57;54.97;;;22.20;;
17618;SDS011;8928;51.678;6.074;2023-02-15T01:16:44;54.27;;;22.00;;
17618;SDS011;8928;51.678;6.074;2023-02-15T01:19:32;60.03;;;22.33;;
17618;SDS011;8928;51.678;6.074;2023-02-15T01:22:19;54.17;;;21.33;;
17618;SDS011;8928;51.678;6.074;2023-02-15T01:25:06;51.93;;;21.57;;
17618;SDS011;8928;51.678;6.074;2023-02-15T01:27:53;54.10;;;21.90;;
17618;SDS011;8928;51.678;6.074;2023-02-15T01:30:42;55.40;;;22.30;;
17618;SDS011;8928;51.678;6.074;2023-02-15T01:33:29;54.80;;;21.23;;
17618;SDS011;8928;51.678;6.074;2023-02-15T01:36:16;54.60;;;21.50;;
17618;SDS011;8928;51.678;6.074;2023-02-15T01:39:03;52.77;;;21.63;;
17618;SDS011;8928;51.678;6.074;2023-02-15T01:41:50;52.17;;;21.50;;
17618;SDS011;8928;51.678;6.074;2023-02-15T01:44:46;58.93;;;21.87;;
17618;SDS011;8928;51.678;6.074;2023-02-15T01:47:38;55.67;;;21.33;;
17618;SDS011;8928;51.678;6.074;2023-02-15T01:50:28;51.83;;;20.80;;
17618;SDS011;8928;51.678;6.074;2023-02-15T01:53:20;48.83;;;20.03;;
17618;SDS011;8928;51.678;6.074;2023-02-15T01:56:11;48.53;;;20.77;;
17618;SDS011;8928;51.678;6.074;2023-02-15T01:59:02;50.27;;;20.87;;
17618;SDS011;8928;51.678;6.074;2023-02-15T02:01:54;50.20;;;20.37;;
17618;SDS011;8928;51.678;6.074;2023-02-15T02:04:47;52.10;;;20.53;;
17618;SDS011;8928;51.678;6.074;2023-02-15T02:07:36;50.20;;;20.00;;
17618;SDS011;8928;51.678;6.074;2023-02-15T02:10:27;51.03;;;20.47;;
17618;SDS011;8928;51.678;6.074;2023-02-15T02:13:15;50.13;;;19.77;;
17618;SDS011;8928;51.678;6.074;2023-02-15T02:16:03;53.50;;;20.53;;
17618;SDS011;8928;51.678;6.074;2023-02-15T02:19:01;54.50;;;20.90;;
17618;SDS011;8928;51.678;6.074;2023-02-15T02:22:13;49.93;;;21.00;;
17618;SDS011;8928;51.678;6.074;2023-02-15T02:25:46;52.00;;;20.40;;
17618;SDS011;8928;51.678;6.074;2023-02-15T02:29:05;56.27;;;20.93;;
17618;SDS011;8928;51.678;6.074;2023-02-15T02:32:29;52.37;;;20.00;;
17618;SDS011;8928;51.678;6.074;2023-02-15T02:35:42;59.30;;;21.50;;
17618;SDS011;8928;51.678;6.074;2023-02-15T02:38:37;55.37;;;20.80;;
17618;SDS011;8928;51.678;6.074;2023-02-15T02:41:31;55.20;;;20.50;;
17618;SDS011;8928;51.678;6.074;2023-02-15T02:44:26;55.17;;;21.27;;
17618;SDS011;8928;51.678;6.074;2023-02-15T02:47:16;55.17;;;22.50;;
17618;SDS011;8928;51.678;6.074;2023-02-15T02:50:08;58.67;;;22.27;;
17618;SDS011;8928;51.678;6.074;2023-02-15T02:53:01;58.00;;;21.73;;
17618;SDS011;8928;51.678;6.074;2023-02-15T02:55:49;52.07;;;21.50;;
17618;SDS011;8928;51.678;6.074;2023-02-15T02:58:41;52.80;;;21.47;;
17618;SDS011;8928;51.678;6.074;2023-02-15T03:01:31;55.07;;;21.90;;
17618;SDS011;8928;51.678;6.074;2023-02-15T03:04:24;55.60;;;22.30;;
17618;SDS011;8928;51.678;6.074;2023-02-15T03:07:15;52.90;;;21.17;;
17618;SDS011;8928;51.678;6.074;2023-02-15T03:10:08;51.97;;;20.97;;
17618;SDS011;8928;51.678;6.074;2023-02-15T03:12:56;59.50;;;22.03;;
17618;SDS011;8928;51.678;6.074;2023-02-15T03:15:43;54.63;;;21.23;;
17618;SDS011;8928;51.678;6.074;2023-02-15T03:18:51;51.83;;;20.27;;
17618;SDS011;8928;51.678;6.074;2023-02-15T03:21:44;54.13;;;21.23;;
17618;SDS011;8928;51.678;6.074;2023-02-15T03:24:35;55.90;;;21.13;;
17618;SDS011;8928;51.678;6.074;2023-02-15T03:27:26;59.77;;;21.53;;
17618;SDS011;8928;51.678;6.074;2023-02-15T03:30:18;62.17;;;22.30;;
17618;SDS011;8928;51.678;6.074;2023-02-15T03:33:08;55.43;;;21.30;;
17618;SDS011;8928;51.678;6.074;2023-02-15T03:35:58;59.83;;;22.10;;
17618;SDS011;8928;51.678;6.074;2023-02-15T03:38:51;60.03;;;21.33;;
17618;SDS011;8928;51.678;6.074;2023-02-15T03:41:46;60.97;;;22.00;;
17618;SDS011;8928;51.678;6.074;2023-02-15T03:44:41;58.57;;;21.07;;
17618;SDS011;8928;51.678;6.074;2023-02-15T03:47:36;57.33;;;20.77;;
17618;SDS011;8928;51.678;6.074;2023-02-15T03:50:26;53.97;;;20.93;;
17618;SDS011;8928;51.678;6.074;2023-02-15T03:53:34;57.27;;;21.20;;
17618;SDS011;8928;51.678;6.074;2023-02-15T03:56:21;60.93;;;22.37;;
17618;SDS011;8928;51.678;6.074;2023-02-15T03:59:08;54.50;;;21.93;;
17618;SDS011;8928;51.678;6.074;2023-02-15T04:02:15;59.23;;;22.87;;
17618;SDS011;8928;51.678;6.074;2023-02-15T04:05:07;56.67;;;22.20;;
17618;SDS011;8928;51.678;6.074;2023-02-15T04:07:54;64.50;;;22.07;;
17618;SDS011;8928;51.678;6.074;2023-02-15T04:10:41;60.87;;;22.37;;
17618;SDS011;8928;51.678;6.074;2023-02-15T04:13:41;62.47;;;22.63;;
17618;SDS011;8928;51.678;6.074;2023-02-15T04:16:28;60.80;;;22.70;;
17618;SDS011;8928;51.678;6.074;2023-02-15T04:19:15;61.73;;;22.87;;
17618;SDS011;8928;51.678;6.074;2023-02-15T04:22:20;60.30;;;21.77;;
17618;SDS011;8928;51.678;6.074;2023-02-15T04:25:24;59.30;;;22.20;;
17618;SDS011;8928;51.678;6.074;2023-02-15T04:28:11;64.23;;;22.63;;
17618;SDS011;8928;51.678;6.074;2023-02-15T04:30:58;59.20;;;22.40;;
17618;SDS011;8928;51.678;6.074;2023-02-15T04:33:48;61.53;;;23.17;;
17618;SDS011;8928;51.678;6.074;2023-02-15T04:36:36;58.77;;;22.67;;
17618;SDS011;8928;51.678;6.074;2023-02-15T04:39:23;62.33;;;23.00;;
17618;SDS011;8928;51.678;6.074;2023-02-15T04:42:10;60.77;;;22.43;;
17618;SDS011;8928;51.678;6.074;2023-02-15T04:45:00;61.00;;;22.70;;
17618;SDS011;8928;51.678;6.074;2023-02-15T04:47:48;60.60;;;23.03;;
17618;SDS011;8928;51.678;6.074;2023-02-15T04:50:35;64.20;;;22.67;;
17618;SDS011;8928;51.678;6.074;2023-02-15T04:53:23;68.13;;;22.77;;
17618;SDS011;8928;51.678;6.074;2023-02-15T04:56:10;63.00;;;23.47;;
17618;SDS011;8928;51.678;6.074;2023-02-15T04:58:57;63.17;;;22.27;;
17618;SDS011;8928;51.678;6.074;2023-02-15T05:01:44;64.10;;;22.57;;
17618;SDS011;8928;51.678;6.074;2023-02-15T05:04:34;65.30;;;22.43;;
17618;SDS011;8928;51.678;6.074;2023-02-15T05:07:21;67.27;;;24.00;;
17618;SDS011;8928;51.678;6.074;2023-02-15T05:10:09;65.17;;;23.83;;
17618;SDS011;8928;51.678;6.074;2023-02-15T05:12:57;66.70;;;23.83;;
17618;SDS011;8928;51.678;6.074;2023-02-15T05:15:46;59.67;;;22.23;;
17618;SDS011;8928;51.678;6.074;2023-02-15T05:18:35;66.60;;;23.07;;
17618;SDS011;8928;51.678;6.074;2023-02-15T05:21:22;64.53;;;23.00;;
17618;SDS011;8928;51.678;6.074;2023-02-15T05:24:09;73.63;;;24.73;;
17618;SDS011;8928;51.678;6.074;2023-02-15T05:27:11;64.77;;;23.20;;
17618;SDS011;8928;51.678;6.074;2023-02-15T05:30:17;73.00;;;24.07;;
17618;SDS011;8928;51.678;6.074;2023-02-15T05:33:04;66.40;;;23.93;;
17618;SDS011;8928;51.678;6.074;2023-02-15T05:35:51;64.80;;;22.70;;
17618;SDS011;8928;51.678;6.074;2023-02-15T05:38:38;68.67;;;23.67;;
17618;SDS011;8928;51.678;6.074;2023-02-15T05:41:25;68.07;;;24.00;;
17618;SDS011;8928;51.678;6.074;2023-02-15T05:44:14;73.27;;;24.73;;
17618;SDS011;8928;51.678;6.074;2023-02-15T05:47:01;70.13;;;24.87;;
17618;SDS011;8928;51.678;6.074;2023-02-15T05:49:48;69.30;;;23.80;;
17618;SDS011;8928;51.678;6.074;2023-02-15T05:52:35;68.73;;;24.97;;
17618;SDS011;8928;51.678;6.074;2023-02-15T05:55:22;69.30;;;24.47;;
17618;SDS011;8928;51.678;6.074;2023-02-15T05:58:09;73.70;;;24.97;;
17618;SDS011;8928;51.678;6.074;2023-02-15T06:00:57;74.23;;;25.80;;
17618;SDS011;8928;51.678;6.074;2023-02-15T06:03:44;75.57;;;24.63;;
17618;SDS011;8928;51.678;6.074;2023-02-15T06:06:31;72.37;;;24.63;;
17618;SDS011;8928;51.678;6.074;2023-02-15T06:09:19;77.37;;;25.70;;
17618;SDS011;8928;51.678;6.074;2023-02-15T06:12:06;81.57;;;25.27;;
17618;SDS011;8928;51.678;6.074;2023-02-15T06:14:54;78.17;;;26.17;;
17618;SDS011;8928;51.678;6.074;2023-02-15T06:17:42;79.37;;;25.73;;
17618;SDS011;8928;51.678;6.074;2023-02-15T06:20:29;81.80;;;27.67;;
17618;SDS011;8928;51.678;6.074;2023-02-15T06:23:16;85.47;;;26.87;;
17618;SDS011;8928;51.678;6.074;2023-02-15T06:26:03;84.13;;;27.60;;
17618;SDS011;8928;51.678;6.074;2023-02-15T06:28:50;79.57;;;25.93;;
17618;SDS011;8928;51.678;6.074;2023-02-15T06:31:37;79.30;;;26.23;;
17618;SDS011;8928;51.678;6.074;2023-02-15T06:34:25;77.03;;;27.33;;
17618;SDS011;8928;51.678;6.074;2023-02-15T06:37:12;76.90;;;26.53;;
17618;SDS011;8928;51.678;6.074;2023-02-15T06:39:59;81.33;;;27.23;;
17618;SDS011;8928;51.678;6.074;2023-02-15T06:42:46;83.90;;;27.17;;
17618;SDS011;8928;51.678;6.074;2023-02-15T06:45:34;82.37;;;26.70;;
17618;SDS011;8928;51.678;6.074;2023-02-15T06:48:21;80.50;;;26.07;;
17618;SDS011;8928;51.678;6.074;2023-02-15T06:51:09;78.40;;;25.73;;
17618;SDS011;8928;51.678;6.074;2023-02-15T06:53:56;76.57;;;26.63;;
17618;SDS011;8928;51.678;6.074;2023-02-15T06:56:43;77.37;;;26.83;;
17618;SDS011;8928;51.678;6.074;2023-02-15T06:59:30;76.30;;;26.77;;
17618;SDS011;8928;51.678;6.074;2023-02-15T07:02:17;76.27;;;26.27;;
17618;SDS011;8928;51.678;6.074;2023-02-15T07:05:04;79.23;;;26.87;;
17618;SDS011;8928;51.678;6.074;2023-02-15T07:07:52;76.13;;;25.47;;
17618;SDS011;8928;51.678;6.074;2023-02-15T07:10:42;82.03;;;26.60;;
17618;SDS011;8928;51.678;6.074;2023-02-15T07:13:30;82.20;;;26.10;;
17618;SDS011;8928;51.678;6.074;2023-02-15T07:16:16;83.83;;;27.77;;
17618;SDS011;8928;51.678;6.074;2023-02-15T07:19:03;81.33;;;26.77;;
17618;SDS011;8928;51.678;6.074;2023-02-15T07:21:50;77.50;;;26.87;;
17618;SDS011;8928;51.678;6.074;2023-02-15T07:24:38;78.70;;;26.93;;
17618;SDS011;8928;51.678;6.074;2023-02-15T07:27:25;79.90;;;26.30;;
17618;SDS011;8928;51.678;6.074;2023-02-15T07:30:13;84.33;;;28.00;;
17618;SDS011;8928;51.678;6.074;2023-02-15T07:33:02;74.67;;;26.17;;
17618;SDS011;8928;51.678;6.074;2023-02-15T07:36:07;78.03;;;27.53;;
17618;SDS011;8928;51.678;6.074;2023-02-15T07:38:56;75.23;;;25.57;;
17618;SDS011;8928;51.678;6.074;2023-02-15T07:41:45;79.70;;;27.50;;
17618;SDS011;8928;51.678;6.074;2023-02-15T07:44:32;79.20;;;26.93;;
17618;SDS011;8928;51.678;6.074;2023-02-15T07:47:19;80.67;;;26.83;;
17618;SDS011;8928;51.678;6.074;2023-02-15T07:50:06;81.10;;;28.13;;
17618;SDS011;8928;51.678;6.074;2023-02-15T07:52:53;89.30;;;29.07;;
17618;SDS011;8928;51.678;6.074;2023-02-15T07:55:40;93.03;;;28.80;;
17618;SDS011;8928;51.678;6.074;2023-02-15T07:58:29;88.27;;;28.63;;
17618;SDS011;8928;51.678;6.074;2023-02-15T08:01:31;80.97;;;28.27;;
17618;SDS011;8928;51.678;6.074;2023-02-15T08:04:20;87.63;;;28.60;;
17618;SDS011;8928;51.678;6.074;2023-02-15T08:07:07;90.07;;;29.53;;
17618;SDS011;8928;51.678;6.074;2023-02-15T08:09:54;96.77;;;31.53;;
17618;SDS011;8928;51.678;6.074;2023-02-15T08:12:41;95.50;;;30.40;;
17618;SDS011;8928;51.678;6.074;2023-02-15T08:15:29;95.63;;;30.30;;
17618;SDS011;8928;51.678;6.074;2023-02-15T08:18:16;99.93;;;31.70;;
17618;SDS011;8928;51.678;6.074;2023-02-15T08:21:04;101.90;;;32.57;;
17618;SDS011;8928;51.678;6.074;2023-02-15T08:23:51;92.67;;;31.83;;
17618;SDS011;8928;51.678;6.074;2023-02-15T08:26:38;97.63;;;31.77;;
17618;SDS011;8928;51.678;6.074;2023-02-15T08:29:27;88.83;;;31.97;;
17618;SDS011;8928;51.678;6.074;2023-02-15T08:32:16;93.87;;;31.63;;
17618;SDS011;8928;51.678;6.074;2023-02-15T08:35:04;87.03;;;30.23;;
17618;SDS011;8928;51.678;6.074;2023-02-15T08:37:51;83.83;;;30.13;;
17618;SDS011;8928;51.678;6.074;2023-02-15T08:40:38;88.50;;;30.97;;
17618;SDS011;8928;51.678;6.074;2023-02-15T08:43:26;83.10;;;29.40;;
17618;SDS011;8928;51.678;6.074;2023-02-15T08:46:13;82.20;;;29.07;;
17618;SDS011;8928;51.678;6.074;2023-02-15T08:49:03;81.87;;;29.70;;
17618;SDS011;8928;51.678;6.074;2023-02-15T08:51:50;74.13;;;28.13;;
17618;SDS011;8928;51.678;6.074;2023-02-15T08:54:37;73.27;;;27.90;;
17618;SDS011;8928;51.678;6.074;2023-02-15T08:57:24;75.30;;;28.13;;
17618;SDS011;8928;51.678;6.074;2023-02-15T09:00:12;72.97;;;27.57;;
17618;SDS011;8928;51.678;6.074;2023-02-15T09:03:00;72.10;;;28.40;;
17618;SDS011;8928;51.678;6.074;2023-02-15T09:05:48;72.57;;;27.60;;
17618;SDS011;8928;51.678;6.074;2023-02-15T09:08:35;73.77;;;27.80;;
17618;SDS011;8928;51.678;6.074;2023-02-15T09:11:25;65.20;;;26.10;;
17618;SDS011;8928;51.678;6.074;2023-02-15T09:14:14;64.67;;;26.73;;
17618;SDS011;8928;51.678;6.074;2023-02-15T09:17:02;62.73;;;25.63;;
17618;SDS011;8928;51.678;6.074;2023-02-15T09:19:49;64.50;;;25.57;;
17618;SDS011;8928;51.678;6.074;2023-02-15T09:22:37;61.70;;;26.30;;
17618;SDS011;8928;51.678;6.074;2023-02-15T09:25:25;59.20;;;24.13;;
17618;SDS011;8928;51.678;6.074;2023-02-15T09:28:12;61.47;;;25.40;;
17618;SDS011;8928;51.678;6.074;2023-02-15T09:31:06;58.80;;;24.80;;
17618;SDS011;8928;51.678;6.074;2023-02-15T09:33:54;56.53;;;24.13;;
17618;SDS011;8928;51.678;6.074;2023-02-15T09:36:42;54.53;;;23.10;;
17618;SDS011;8928;51.678;6.074;2023-02-15T09:39:31;50.70;;;23.13;;
17618;SDS011;8928;51.678;6.074;2023-02-15T09:45:48;51.70;;;22.00;;
17618;SDS011;8928;51.678;6.074;2023-02-15T09:48:47;48.77;;;21.97;;
17618;SDS011;8928;51.678;6.074;2023-02-15T09:51:45;46.67;;;20.90;;
17618;SDS011;8928;51.678;6.074;2023-02-15T09:54:49;45.53;;;20.90;;
17618;SDS011;8928;51.678;6.074;2023-02-15T09:57:46;48.50;;;21.50;;
17618;SDS011;8928;51.678;6.074;2023-02-15T10:00:44;45.67;;;21.03;;
17618;SDS011;8928;51.678;6.074;2023-02-15T10:03:42;46.60;;;21.27;;
17618;SDS011;8928;51.678;6.074;2023-02-15T10:06:39;46.40;;;21.20;;
17618;SDS011;8928;51.678;6.074;2023-02-15T10:09:37;44.70;;;20.57;;
17618;SDS011;8928;51.678;6.074;2023-02-15T10:12:38;44.93;;;20.40;;
17618;SDS011;8928;51.678;6.074;2023-02-15T10:15:44;43.90;;;20.67;;
17618;SDS011;8928;51.678;6.074;2023-02-15T10:18:52;42.67;;;20.50;;
17618;SDS011;8928;51.678;6.074;2023-02-15T10:21:51;41.83;;;20.07;;
17618;SDS011;8928;51.678;6.074;2023-02-15T10:24:49;46.23;;;20.63;;
17618;SDS011;8928;51.678;6.074;2023-02-15T10:27:46;41.80;;;19.67;;
17618;SDS011;8928;51.678;6.074;2023-02-15T10:30:36;42.47;;;20.07;;
17618;SDS011;8928;51.678;6.074;2023-02-15T10:33:35;43.77;;;20.17;;
17618;SDS011;8928;51.678;6.074;2023-02-15T10:36:29;40.97;;;20.00;;
17618;SDS011;8928;51.678;6.074;2023-02-15T10:39:27;39.47;;;19.90;;
17618;SDS011;8928;51.678;6.074;2023-02-15T10:42:23;40.23;;;19.13;;
17618;SDS011;8928;51.678;6.074;2023-02-15T10:45:20;42.17;;;19.23;;
17618;SDS011;8928;51.678;6.074;2023-02-15T10:48:18;38.63;;;19.63;;
17618;SDS011;8928;51.678;6.074;2023-02-15T10:51:25;39.60;;;18.90;;
17618;SDS011;8928;51.678;6.074;2023-02-15T10:54:23;41.80;;;19.47;;
17618;SDS011;8928;51.678;6.074;2023-02-15T10:57:19;38.50;;;19.67;;
17618;SDS011;8928;51.678;6.074;2023-02-15T11:00:15;42.17;;;19.17;;
17618;SDS011;8928;51.678;6.074;2023-02-15T11:03:16;40.80;;;19.43;;
17618;SDS011;8928;51.678;6.074;2023-02-15T11:06:12;39.73;;;19.17;;
17618;SDS011;8928;51.678;6.074;2023-02-15T11:09:02;39.83;;;19.53;;
17618;SDS011;8928;51.678;6.074;2023-02-15T11:11:55;41.67;;;19.20;;
17618;SDS011;8928;51.678;6.074;2023-02-15T11:14:46;39.30;;;19.37;;
17618;SDS011;8928;51.678;6.074;2023-02-15T11:17:41;39.43;;;19.10;;
17618;SDS011;8928;51.678;6.074;2023-02-15T11:20:32;39.70;;;19.43;;
17618;SDS011;8928;51.678;6.074;2023-02-15T11:23:23;39.23;;;18.87;;
17618;SDS011;8928;51.678;6.074;2023-02-15T11:26:13;39.30;;;19.17;;
17618;SDS011;8928;51.678;6.074;2023-02-15T11:29:06;37.37;;;19.10;;
17618;SDS011;8928;51.678;6.074;2023-02-15T11:31:59;43.23;;;20.03;;
17618;SDS011;8928;51.678;6.074;2023-02-15T11:34:50;39.00;;;19.67;;
17618;SDS011;8928;51.678;6.074;2023-02-15T11:37:40;39.73;;;19.67;;
17618;SDS011;8928;51.678;6.074;2023-02-15T11:40:33;42.43;;;19.60;;
17618;SDS011;8928;51.678;6.074;2023-02-15T11:43:23;38.67;;;19.60;;
17618;SDS011;8928;51.678;6.074;2023-02-15T11:46:16;36.60;;;19.00;;
17618;SDS011;8928;51.678;6.074;2023-02-15T11:49:08;40.77;;;20.03;;
17618;SDS011;8928;51.678;6.074;2023-02-15T11:52:10;38.93;;;18.87;;
17618;SDS011;8928;51.678;6.074;2023-02-15T11:54:59;39.80;;;19.37;;
17618;SDS011;8928;51.678;6.074;2023-02-15T11:57:48;39.43;;;19.87;;
17618;SDS011;8928;51.678;6.074;2023-02-15T12:00:40;36.33;;;19.50;;
17618;SDS011;8928;51.678;6.074;2023-02-15T12:03:31;38.83;;;19.80;;
17618;SDS011;8928;51.678;6.074;2023-02-15T12:06:26;43.60;;;20.30;;
17618;SDS011;8928;51.678;6.074;2023-02-15T12:09:17;39.80;;;19.90;;
17618;SDS011;8928;51.678;6.074;2023-02-15T12:12:19;37.30;;;19.37;;
17618;SDS011;8928;51.678;6.074;2023-02-15T12:15:09;44.17;;;20.33;;
17618;SDS011;8928;51.678;6.074;2023-02-15T12:17:57;43.10;;;20.50;;
17618;SDS011;8928;51.678;6.074;2023-02-15T12:20:44;38.10;;;19.27;;
17618;SDS011;8928;51.678;6.074;2023-02-15T12:23:32;38.93;;;19.83;;
17618;SDS011;8928;51.678;6.074;2023-02-15T12:26:24;39.67;;;20.40;;
17618;SDS011;8928;51.678;6.074;2023-02-15T12:29:15;42.10;;;20.23;;
17618;SDS011;8928;51.678;6.074;2023-02-15T12:32:03;41.77;;;20.13;;
17618;SDS011;8928;51.678;6.074;2023-02-15T12:34:53;41.50;;;20.43;;
17618;SDS011;8928;51.678;6.074;2023-02-15T12:37:51;40.07;;;19.97;;
17618;SDS011;8928;51.678;6.074;2023-02-15T12:40:40;39.03;;;20.47;;
17618;SDS011;8928;51.678;6.074;2023-02-15T12:43:31;41.33;;;20.13;;
17618;SDS011;8928;51.678;6.074;2023-02-15T12:46:21;40.20;;;19.30;;
17618;SDS011;8928;51.678;6.074;2023-02-15T12:49:16;38.30;;;19.30;;
17618;SDS011;8928;51.678;6.074;2023-02-15T12:52:05;38.00;;;19.33;;
17618;SDS011;8928;51.678;6.074;2023-02-15T12:55:17;41.97;;;20.50;;
17618;SDS011;8928;51.678;6.074;2023-02-15T12:58:07;44.87;;;19.60;;
17618;SDS011;8928;51.678;6.074;2023-02-15T13:01:10;37.87;;;20.13;;
17618;SDS011;8928;51.678;6.074;2023-02-15T13:04:01;36.17;;;19.70;;
17618;SDS011;8928;51.678;6.074;2023-02-15T13:06:51;43.20;;;20.27;;
17618;SDS011;8928;51.678;6.074;2023-02-15T13:09:40;38.47;;;20.13;;
17618;SDS011;8928;51.678;6.074;2023-02-15T13:12:28;39.23;;;19.60;;
17618;SDS011;8928;51.678;6.074;2023-02-15T13:15:23;44.07;;;19.90;;
17618;SDS011;8928;51.678;6.074;2023-02-15T13:18:19;41.30;;;20.43;;
17618;SDS011;8928;51.678;6.074;2023-02-15T13:21:16;41.00;;;19.83;;
17618;SDS011;8928;51.678;6.074;2023-02-15T13:24:10;38.53;;;19.30;;
17618;SDS011;8928;51.678;6.074;2023-02-15T13:27:03;40.07;;;19.90;;
17618;SDS011;8928;51.678;6.074;2023-02-15T13:29:52;37.20;;;18.97;;
17618;SDS011;8928;51.678;6.074;2023-02-15T13:32:43;34.20;;;19.20;;
17618;SDS011;8928;51.678;6.074;2023-02-15T13:35:36;38.90;;;19.17;;
17618;SDS011;8928;51.678;6.074;2023-02-15T13:38:40;37.80;;;18.20;;
17618;SDS011;8928;51.678;6.074;2023-02-15T13:41:33;39.33;;;19.20;;
17618;SDS011;8928;51.678;6.074;2023-02-15T13:44:41;37.05;;;19.95;;
17618;SDS011;8928;51.678;6.074;2023-02-15T13:47:52;37.45;;;19.52;;
17618;SDS011;8928;51.678;6.074;2023-02-15T13:50:59;40.63;;;19.60;;
17618;SDS011;8928;51.678;6.074;2023-02-15T13:54:01;36.78;;;19.13;;
17618;SDS011;8928;51.678;6.074;2023-02-15T13:57:16;38.28;;;18.65;;
17618;SDS011;8928;51.678;6.074;2023-02-15T14:00:25;38.85;;;18.73;;
17618;SDS011;8928;51.678;6.074;2023-02-15T14:03:26;37.50;;;18.75;;
17618;SDS011;8928;51.678;6.074;2023-02-15T14:09:47;33.20;;;17.63;;
17618;SDS011;8928;51.678;6.074;2023-02-15T14:12:52;37.03;;;19.00;;
17618;SDS011;8928;51.678;6.074;2023-02-15T14:15:51;37.70;;;19.45;;
17618;SDS011;8928;51.678;6.074;2023-02-15T14:18:44;35.67;;;19.45;;
17618;SDS011;8928;51.678;6.074;2023-02-15T14:21:36;35.15;;;17.92;;
17618;SDS011;8928;51.678;6.074;2023-02-15T14:24:32;38.42;;;19.08;;
17618;SDS011;8928;51.678;6.074;2023-02-15T14:27:24;34.05;;;18.58;;
17618;SDS011;8928;51.678;6.074;2023-02-15T14:30:18;37.85;;;19.40;;
17618;SDS011;8928;51.678;6.074;2023-02-15T14:33:07;41.65;;;18.70;;
17618;SDS011;8928;51.678;6.074;2023-02-15T14:35:58;35.17;;;18.90;;
17618;SDS011;8928;51.678;6.074;2023-02-15T14:38:49;40.92;;;19.35;;
17618;SDS011;8928;51.678;6.074;2023-02-15T14:41:45;44.33;;;20.42;;
17618;SDS011;8928;51.678;6.074;2023-02-15T14:44:37;35.30;;;18.90;;
17618;SDS011;8928;51.678;6.074;2023-02-15T14:47:31;37.78;;;18.95;;
17618;SDS011;8928;51.678;6.074;2023-02-15T14:50:35;40.27;;;19.70;;
17618;SDS011;8928;51.678;6.074;2023-02-15T14:53:34;41.03;;;19.50;;
17618;SDS011;8928;51.678;6.074;2023-02-15T14:56:24;38.37;;;19.97;;
17618;SDS011;8928;51.678;6.074;2023-02-15T14:59:14;37.13;;;19.03;;
17618;SDS011;8928;51.678;6.074;2023-02-15T15:02:09;41.70;;;20.03;;
17618;SDS011;8928;51.678;6.074;2023-02-15T15:05:02;39.17;;;19.77;;
17618;SDS011;8928;51.678;6.074;2023-02-15T15:07:54;38.20;;;18.50;;
17618;SDS011;8928;51.678;6.074;2023-02-15T15:10:43;38.40;;;19.60;;
17618;SDS011;8928;51.678;6.074;2023-02-15T15:13:34;43.30;;;20.07;;
17618;SDS011;8928;51.678;6.074;2023-02-15T15:16:50;40.53;;;19.57;;
17618;SDS011;8928;51.678;6.074;2023-02-15T15:26:29;40.03;;;18.97;;
17618;SDS011;8928;51.678;6.074;2023-02-15T15:32:30;40.00;;;18.87;;
17618;SDS011;8928;51.678;6.074;2023-02-15T15:35:22;45.77;;;20.60;;
17618;SDS011;8928;51.678;6.074;2023-02-15T15:38:22;41.50;;;18.80;;
17618;SDS011;8928;51.678;6.074;2023-02-15T15:41:27;41.43;;;19.73;;
17618;SDS011;8928;51.678;6.074;2023-02-15T15:44:31;41.47;;;19.57;;
17618;SDS011;8928;51.678;6.074;2023-02-15T15:47:44;44.93;;;20.00;;
17618;SDS011;8928;51.678;6.074;2023-02-15T15:50:47;45.63;;;20.33;;
17618;SDS011;8928;51.678;6.074;2023-02-15T15:53:40;40.07;;;19.30;;
17618;SDS011;8928;51.678;6.074;2023-02-15T15:56:30;38.73;;;18.87;;
17618;SDS011;8928;51.678;6.074;2023-02-15T15:59:20;45.07;;;20.70;;
17618;SDS011;8928;51.678;6.074;2023-02-15T16:02:11;46.00;;;20.90;;
17618;SDS011;8928;51.678;6.074;2023-02-15T16:05:09;45.47;;;20.97;;
17618;SDS011;8928;51.678;6.074;2023-02-15T16:07:58;43.03;;;20.60;;
17618;SDS011;8928;51.678;6.074;2023-02-15T16:10:45;47.03;;;21.13;;
17618;SDS011;8928;51.678;6.074;2023-02-15T16:13:33;49.73;;;22.57;;
17618;SDS011;8928;51.678;6.074;2023-02-15T16:16:20;47.03;;;22.63;;
17618;SDS011;8928;51.678;6.074;2023-02-15T16:19:15;48.57;;;21.70;;
17618;SDS011;8928;51.678;6.074;2023-02-15T16:22:09;49.83;;;22.83;;
17618;SDS011;8928;51.678;6.074;2023-02-15T16:28:16;54.70;;;22.43;;
17618;SDS011;8928;51.678;6.074;2023-02-15T16:31:06;50.70;;;23.27;;
17618;SDS011;8928;51.678;6.074;2023-02-15T16:33:54;49.23;;;22.43;;
17618;SDS011;8928;51.678;6.074;2023-02-15T16:36:41;47.00;;;21.37;;
17618;SDS011;8928;51.678;6.074;2023-02-15T16:39:30;50.87;;;22.67;;
17618;SDS011;8928;51.678;6.074;2023-02-15T16:42:26;48.83;;;22.87;;
17618;SDS011;8928;51.678;6.074;2023-02-15T16:45:14;54.20;;;23.03;;
17618;SDS011;8928;51.678;6.074;2023-02-15T16:48:05;53.00;;;23.93;;
17618;SDS011;8928;51.678;6.074;2023-02-15T16:50:57;52.93;;;23.93;;
17618;SDS011;8928;51.678;6.074;2023-02-15T16:53:46;53.77;;;23.70;;
17618;SDS011;8928;51.678;6.074;2023-02-15T16:56:34;54.03;;;24.23;;
17618;SDS011;8928;51.678;6.074;2023-02-15T16:59:27;52.73;;;24.47;;
17618;SDS011;8928;51.678;6.074;2023-02-15T17:02:19;54.53;;;25.57;;
17618;SDS011;8928;51.678;6.074;2023-02-15T17:05:15;56.93;;;25.10;;
17618;SDS011;8928;51.678;6.074;2023-02-15T17:08:10;56.10;;;26.60;;
17618;SDS011;8928;51.678;6.074;2023-02-15T17:11:12;58.67;;;26.10;;
17618;SDS011;8928;51.678;6.074;2023-02-15T17:14:19;66.43;;;27.33;;
17618;SDS011;8928;51.678;6.074;2023-02-15T17:17:08;52.57;;;24.87;;
17618;SDS011;8928;51.678;6.074;2023-02-15T17:20:00;63.73;;;26.63;;